createdAt,value
2023-03-16T15:40:41.505Z,5.852356
2023-03-16T15:44:06.712Z,5.912781
2023-03-16T15:47:31.862Z,5.912781
2023-03-16T15:50:57.032Z,5.942993
2023-03-16T15:54:22.161Z,5.912781
2023-03-16T15:57:47.351Z,5.90271
2023-03-16T16:01:12.564Z,5.973206
2023-03-16T16:04:37.747Z,5.963135
2023-03-16T16:08:02.840Z,5.963135
2023-03-16T16:11:28.124Z,5.90271
2023-03-16T16:14:53.365Z,5.90271
2023-03-16T16:18:21.565Z,5.822144
2023-03-16T16:21:43.796Z,5.892639
2023-03-16T16:25:09.001Z,5.90271
2023-03-16T16:28:34.155Z,5.892639
2023-03-16T16:32:00.005Z,5.912781
2023-03-16T16:35:25.158Z,5.912781
2023-03-16T16:38:50.298Z,5.822144
2023-03-16T16:42:15.459Z,5.822144
2023-03-16T16:45:40.662Z,5.832214
2023-03-16T16:49:05.892Z,5.812073
2023-03-16T16:52:31.061Z,5.65094
2023-03-16T16:55:56.280Z,5.630798
2023-03-16T16:59:21.478Z,5.671082
2023-03-16T17:02:46.669Z,5.65094
2023-03-16T17:06:11.933Z,5.600586
2023-03-16T17:09:37.153Z,5.479736
2023-03-16T17:13:02.372Z,5.348816
2023-03-16T17:16:28.064Z,5.298462
2023-03-16T17:19:53.224Z,5.197754
2023-03-16T17:23:18.438Z,5.177612
2023-03-16T17:26:43.623Z,5.1474
2023-03-16T17:30:08.875Z,5.056763
2023-03-16T17:33:34.111Z,4.966125
2023-03-16T17:36:59.313Z,4.915771
2023-03-16T17:40:24.576Z,4.885559
2023-03-16T17:43:49.709Z,5.016479
2023-03-16T17:47:14.901Z,5.016479
2023-03-16T17:50:40.088Z,5.066833
2023-03-16T17:54:05.306Z,5.036621
2023-03-16T17:57:32.633Z,4.966125
2023-03-16T18:00:57.838Z,4.845276
2023-03-16T18:04:24.581Z,4.724426
2023-03-16T18:07:49.983Z,4.674072
2023-03-16T18:11:15.204Z,4.623718
2023-03-16T18:14:40.430Z,4.633789
2023-03-16T18:18:05.590Z,4.653931
2023-03-16T18:21:30.732Z,4.653931
2023-03-16T18:24:55.897Z,4.603577
2023-03-16T18:28:21.033Z,4.583435
2023-03-16T18:31:46.308Z,4.583435
2023-03-16T18:35:11.447Z,4.482727
2023-03-16T18:38:36.604Z,4.412231
2023-03-16T18:42:01.756Z,4.402161
2023-03-16T18:45:27.010Z,4.361877
2023-03-16T18:48:52.109Z,4.402161
2023-03-16T18:52:17.253Z,4.371948
2023-03-16T18:55:42.394Z,4.371948
2023-03-16T18:59:07.529Z,4.412231
2023-03-16T19:02:32.687Z,4.452515
2023-03-16T19:05:57.939Z,4.412231
2023-03-16T19:09:23.145Z,4.422302
2023-03-16T19:12:48.282Z,4.452515
2023-03-16T19:16:13.465Z,4.341736
2023-03-16T19:19:38.581Z,4.331665
2023-03-16T19:23:03.728Z,4.331665
2023-03-16T19:26:28.882Z,4.331665
2023-03-16T19:29:54.000Z,4.361877
2023-03-16T19:33:19.158Z,4.341736
2023-03-16T19:36:44.398Z,4.321594
2023-03-16T19:40:09.624Z,4.341736
2023-03-16T19:43:34.851Z,4.402161
2023-03-16T19:47:00.036Z,4.331665
2023-03-16T19:50:25.263Z,4.261169
2023-03-16T19:53:50.475Z,4.261169
2023-03-16T19:57:15.722Z,4.220886
2023-03-16T20:00:40.889Z,4.160461
2023-03-16T20:04:06.114Z,4.150391
2023-03-16T20:07:31.251Z,4.160461
2023-03-16T20:10:56.387Z,4.160461
2023-03-16T20:14:21.558Z,4.180603
2023-03-16T20:17:46.704Z,4.200745
2023-03-16T20:21:11.932Z,4.200745
2023-03-16T20:24:37.087Z,4.160461
2023-03-16T20:28:02.302Z,4.220886
2023-03-16T20:31:27.487Z,4.220886
2023-03-16T20:34:52.697Z,4.220886
2023-03-16T20:38:17.895Z,4.180603
2023-03-16T20:41:43.080Z,4.079895
2023-03-16T20:45:09.218Z,4.059753
2023-03-16T20:48:33.486Z,3.999329
2023-03-16T20:51:58.699Z,4.059753
2023-03-16T20:55:23.856Z,4.110107
2023-03-16T20:58:48.963Z,4.01947
2023-03-16T21:02:14.134Z,3.979187
2023-03-16T21:05:39.330Z,4.059753
2023-03-16T21:09:04.445Z,4.059753
2023-03-16T21:12:29.641Z,3.999329
2023-03-16T21:15:54.908Z,3.979187
2023-03-16T21:19:20.026Z,3.928833
2023-03-16T21:22:45.292Z,3.878479
2023-03-16T21:26:10.482Z,3.959045
2023-03-16T21:29:35.685Z,3.938904
2023-03-16T21:33:00.884Z,3.938904
2023-03-16T21:36:26.057Z,3.868408
2023-03-16T21:39:51.289Z,3.838196
2023-03-16T21:43:16.443Z,3.838196
2023-03-16T21:46:41.746Z,3.747559
2023-03-16T21:50:06.827Z,3.717346
2023-03-16T21:53:31.950Z,3.747559
2023-03-16T21:56:57.118Z,3.697205
2023-03-16T22:00:22.306Z,3.677063
2023-03-16T22:03:51.143Z,3.687134
2023-03-16T22:07:12.636Z,3.576355
2023-03-16T22:10:37.810Z,3.51593
2023-03-16T22:14:03.020Z,3.546143
2023-03-16T22:17:29.032Z,3.576355
2023-03-16T22:20:53.368Z,3.656921
2023-03-16T22:24:18.577Z,3.697205
2023-03-16T22:27:43.738Z,3.656921
2023-03-16T22:31:09.009Z,3.717346
2023-03-16T22:34:34.059Z,3.727417
2023-03-16T22:37:59.229Z,3.697205
2023-03-16T22:41:24.381Z,3.656921
2023-03-16T22:44:49.546Z,3.656921
2023-03-16T22:48:14.752Z,3.656921
2023-03-16T22:51:39.864Z,3.546143
2023-03-16T22:55:05.040Z,3.576355
2023-03-16T22:58:30.199Z,3.576355
2023-03-16T23:01:55.324Z,3.576355
2023-03-16T23:05:20.508Z,3.656921
2023-03-16T23:08:45.608Z,3.616638
2023-03-16T23:12:10.798Z,3.616638
2023-03-16T23:15:35.990Z,3.687134
2023-03-16T23:19:01.185Z,3.717346
2023-03-16T23:22:26.410Z,3.677063
2023-03-16T23:25:51.551Z,3.717346
2023-03-16T23:29:16.718Z,3.757629
2023-03-16T23:32:41.929Z,3.697205
2023-03-16T23:36:07.116Z,3.656921
2023-03-16T23:39:32.774Z,3.697205
2023-03-16T23:42:57.952Z,3.606567
2023-03-16T23:46:23.184Z,3.656921
2023-03-16T23:49:48.364Z,3.717346
2023-03-16T23:53:13.566Z,3.717346
2023-03-16T23:56:38.801Z,3.727417
